Time;durP1;ratioP1;P1;durP2;ratioP2;P2;SDS_P1;SDS_P2;PMS_P1;PMS_P2;Temp;Humidity;BMP_temperature;BMP_pressure;BME280_temperature;BME280_humidity;BME280_pressure;Samples;Min_cycle;Max_cycle;Signal;HPM_P1;HPM_P2
2021/09/27 00:00:55;;;;;;;13.55;9.23;;;;;16.50;100993.00;;;;10431076;28;20190;-79
2021/09/27 00:05:58;;;;;;;12.13;9.37;;;;;16.40;100988.00;;;;10428893;28;20199;-79
2021/09/27 00:11:04;;;;;;;14.25;9.93;;;;;16.30;100978.00;;;;10415514;28;20284;-79
2021/09/27 00:16:08;;;;;;;13.63;10.15;;;;;16.20;100977.00;;;;10424321;28;20722;-79
2021/09/27 00:21:19;;;;;;;12.07;9.43;;;;;16.10;100975.00;;;;10426936;28;20190;-79
2021/09/27 00:26:23;;;;;;;15.20;9.60;;;;;16.00;100976.00;;;;10422762;28;20195;-79
2021/09/27 00:31:25;;;;;;;13.80;9.57;;;;;15.90;100970.00;;;;10433285;28;20214;-79
2021/09/27 00:36:27;;;;;;;13.37;10.27;;;;;15.80;100961.00;;;;10461566;28;20193;-80
2021/09/27 00:41:30;;;;;;;11.80;10.07;;;;;15.70;100962.00;;;;10419515;28;20229;-79
2021/09/27 00:46:32;;;;;;;20.13;10.37;;;;;15.60;100955.00;;;;10422601;28;20191;-79
2021/09/27 00:51:43;;;;;;;14.90;11.17;;;;;15.50;100956.00;;;;10418987;28;20210;-79
2021/09/27 00:56:52;;;;;;;14.13;11.53;;;;;15.40;100944.00;;;;10452205;28;20202;-79
2021/09/27 01:01:54;;;;;;;17.13;12.57;;;;;15.40;100951.00;;;;10430515;28;20195;-80
2021/09/27 01:07:20;;;;;;;17.33;12.00;;;;;15.30;100960.00;;;;10441828;28;20202;-79
2021/09/27 01:12:46;;;;;;;16.50;11.70;;;;;15.30;100965.00;;;;10455796;28;20608;-79
2021/09/27 01:17:51;;;;;;;17.60;13.60;;;;;15.30;100980.00;;;;10420335;28;20201;-79
2021/09/27 01:23:18;;;;;;;19.30;14.97;;;;;15.30;100980.00;;;;10408171;28;20202;-80
2021/09/27 01:28:41;;;;;;;29.33;17.70;;;;;15.30;100975.00;;;;10407382;28;20207;-79
2021/09/27 01:34:18;;;;;;;33.43;20.13;;;;;15.30;100979.00;;;;10421995;28;20276;-79
2021/09/27 01:39:37;;;;;;;43.80;25.40;;;;;15.30;100970.00;;;;10384653;28;20214;-79
2021/09/27 01:44:45;;;;;;;41.10;24.50;;;;;15.40;100958.00;;;;10430983;28;20198;-79
2021/09/27 01:49:55;;;;;;;45.40;25.97;;;;;15.40;100958.00;;;;10444158;28;20689;-79
2021/09/27 01:55:07;;;;;;;49.47;27.83;;;;;15.50;100962.00;;;;10452023;28;20210;-79
2021/09/27 02:00:24;;;;;;;48.53;28.83;;;;;15.50;100954.00;;;;10404540;28;20194;-79
2021/09/27 02:05:44;;;;;;;52.60;28.67;;;;;15.50;100949.00;;;;10438845;28;20938;-79
2021/09/27 02:10:59;;;;;;;42.93;28.03;;;;;15.40;100943.00;;;;10418854;28;20631;-79
2021/09/27 02:16:16;;;;;;;42.53;26.70;;;;;15.40;100937.00;;;;10452230;28;20194;-79
2021/09/27 02:21:23;;;;;;;45.80;26.80;;;;;15.30;100946.00;;;;10435013;28;20185;-79
2021/09/27 02:26:25;;;;;;;41.60;25.90;;;;;15.30;100937.00;;;;10444160;28;20186;-79
2021/09/27 02:31:47;;;;;;;43.93;25.77;;;;;15.20;100932.00;;;;10452369;28;20221;-79
2021/09/27 02:37:10;;;;;;;36.53;25.33;;;;;15.20;100933.00;;;;10389696;28;20256;-79
2021/09/27 02:42:30;;;;;;;37.53;22.97;;;;;15.20;100922.00;;;;10423082;28;20584;-80
2021/09/27 02:47:41;;;;;;;35.43;23.00;;;;;15.20;100907.00;;;;10435338;28;20279;-80
2021/09/27 02:52:43;;;;;;;28.57;21.23;;;;;15.20;100910.00;;;;10417147;28;20194;-79
2021/09/27 02:58:19;;;;;;;29.50;19.87;;;;;15.10;100895.00;;;;10410320;28;20187;-79
2021/09/27 03:03:42;;;;;;;25.53;20.33;;;;;15.20;100902.00;;;;10424953;28;20588;-79
2021/09/27 03:08:47;;;;;;;33.00;22.10;;;;;15.20;100885.00;;;;10443620;28;20270;-79
2021/09/27 03:13:59;;;;;;;37.93;23.60;;;;;15.20;100892.00;;;;10409414;28;20194;-79
2021/09/27 03:19:11;;;;;;;36.53;21.83;;;;;15.10;100897.00;;;;10435405;28;20676;-79
2021/09/27 03:24:35;;;;;;;35.77;22.77;;;;;15.00;100904.00;;;;10408694;28;20186;-79
2021/09/27 03:29:58;;;;;;;33.10;22.80;;;;;15.00;100900.00;;;;10440292;28;20222;-79
2021/09/27 03:35:14;;;;;;;33.87;23.03;;;;;15.00;100893.00;;;;10450548;28;20645;-80
2021/09/27 03:40:52;;;;;;;33.57;23.50;;;;;15.00;100889.00;;;;10409178;28;20529;-79
2021/09/27 03:46:16;;;;;;;32.57;22.83;;;;;15.10;100877.00;;;;10374509;28;20211;-80
2021/09/27 03:51:37;;;;;;;33.90;22.43;;;;;15.10;100881.00;;;;10470751;28;20665;-79
2021/09/27 03:56:44;;;;;;;34.83;23.90;;;;;15.10;100875.00;;;;10435282;28;20194;-80
2021/09/27 04:01:50;;;;;;;31.27;21.37;;;;;15.20;100883.00;;;;10409559;28;20190;-80
2021/09/27 04:07:16;;;;;;;31.27;22.27;;;;;15.30;100880.00;;;;10454441;28;20199;-80
2021/09/27 04:12:51;;;;;;;29.57;21.23;;;;;15.30;100872.00;;;;10421846;28;20225;-79
2021/09/27 04:18:05;;;;;;;29.67;22.07;;;;;15.30;100876.00;;;;10424337;28;20191;-80
2021/09/27 04:23:26;;;;;;;29.60;20.30;;;;;15.30;100879.00;;;;10429873;28;20195;-79
2021/09/27 04:28:51;;;;;;;32.37;23.50;;;;;15.40;100879.00;;;;10424397;28;20232;-80
2021/09/27 04:34:31;;;;;;;41.27;24.33;;;;;15.50;100867.00;;;;10409695;28;20320;-80
2021/09/27 04:39:36;;;;;;;34.37;24.40;;;;;15.60;100860.00;;;;10404159;28;20211;-80
2021/09/27 04:44:53;;;;;;;32.37;23.33;;;;;15.60;100861.00;;;;10456246;28;20198;-79
2021/09/27 04:50:10;;;;;;;38.27;24.50;;;;;15.60;100853.00;;;;10408496;28;20279;-80
2021/09/27 04:55:27;;;;;;;35.27;24.30;;;;;15.60;100861.00;;;;10418616;28;20198;-80
2021/09/27 05:00:39;;;;;;;37.03;23.80;;;;;15.60;100838.00;;;;10438404;28;20186;-80
2021/09/27 05:06:10;;;;;;;38.37;23.23;;;;;15.70;100835.00;;;;10440798;28;20294;-81
2021/09/27 05:11:38;;;;;;;38.67;23.87;;;;;15.70;100824.00;;;;10403316;28;20562;-80
2021/09/27 05:17:11;;;;;;;31.03;22.27;;;;;15.70;100831.00;;;;10420055;28;20281;-80
2021/09/27 05:22:39;;;;;;;33.67;23.30;;;;;15.80;100821.00;;;;10431509;28;20195;-80
2021/09/27 05:28:11;;;;;;;32.40;21.73;;;;;15.80;100825.00;;;;10438354;28;20210;-81
2021/09/27 05:33:27;;;;;;;29.73;19.97;;;;;15.80;100835.00;;;;10444591;28;20570;-80
2021/09/27 05:38:47;;;;;;;28.93;20.13;;;;;15.90;100832.00;;;;10390593;28;20255;-80
2021/09/27 05:44:07;;;;;;;30.10;20.53;;;;;16.00;100835.00;;;;10451598;28;20194;-80
2021/09/27 05:49:27;;;;;;;34.20;21.08;;;;;16.00;100833.00;;;;10433484;28;20661;-80
2021/09/27 05:54:47;;;;;;;29.57;19.93;;;;;16.10;100819.00;;;;10425128;28;20250;-80
2021/09/27 06:00:05;;;;;;;24.97;18.23;;;;;16.10;100823.00;;;;10425500;28;20217;-80
2021/09/27 06:05:17;;;;;;;28.70;18.77;;;;;16.20;100819.00;;;;10444197;28;20190;-80
2021/09/27 06:10:43;;;;;;;27.17;18.20;;;;;16.30;100808.00;;;;10421101;28;20234;-80
2021/09/27 06:15:47;;;;;;;25.23;18.00;;;;;16.50;100812.00;;;;10444850;28;20753;-80
2021/09/27 06:21:18;;;;;;;27.35;17.13;;;;;16.60;100817.00;;;;10430086;28;20239;-80
2021/09/27 06:26:26;;;;;;;26.38;17.15;;;;;16.70;100815.00;;;;10407746;28;20256;-80
2021/09/27 06:31:37;;;;;;;21.33;15.70;;;;;16.80;100815.00;;;;10423340;28;20332;-80
2021/09/27 06:36:40;;;;;;;20.45;14.55;;;;;16.90;100815.00;;;;10439866;28;20253;-80
2021/09/27 06:41:46;;;;;;;18.90;14.55;;;;;17.10;100818.00;;;;10425056;28;20210;-79
2021/09/27 06:46:48;;;;;;;18.63;13.95;;;;;17.30;100814.00;;;;10408313;28;20227;-78
2021/09/27 06:51:54;;;;;;;20.17;13.32;;;;;17.50;100824.00;;;;10443061;28;20245;-79
2021/09/27 06:56:56;;;;;;;14.95;11.70;;;;;17.70;100834.00;;;;10408735;28;20198;-78
2021/09/27 07:01:58;;;;;;;18.27;11.02;;;;;17.90;100833.00;;;;10429459;28;20190;-78
2021/09/27 07:07:02;;;;;;;11.82;10.40;;;;;18.00;100832.00;;;;10448804;28;20199;-79
2021/09/27 07:12:04;;;;;;;11.07;9.90;;;;;18.10;100839.00;;;;10403971;28;20241;-79
2021/09/27 07:17:05;;;;;;;14.00;8.77;;;;;18.20;100839.00;;;;10411967;28;20689;-79
2021/09/27 07:22:08;;;;;;;9.85;8.00;;;;;18.40;100846.00;;;;10417239;28;20248;-78
2021/09/27 07:27:11;;;;;;;9.82;7.65;;;;;18.60;100854.00;;;;10427860;28;20209;-78
2021/09/27 07:32:12;;;;;;;10.10;7.22;;;;;18.70;100845.00;;;;10452315;28;20210;-78
2021/09/27 07:37:14;;;;;;;12.60;7.22;;;;;19.00;100849.00;;;;10444133;28;20194;-78
2021/09/27 07:42:17;;;;;;;8.68;6.10;;;;;19.10;100846.00;;;;10407774;28;20272;-79
2021/09/27 07:47:19;;;;;;;9.20;6.30;;;;;19.10;100845.00;;;;10431814;28;20563;-78
2021/09/27 07:52:20;;;;;;;7.45;6.20;;;;;19.30;100844.00;;;;10446396;28;20214;-77
2021/09/27 07:57:22;;;;;;;7.50;5.78;;;;;19.60;100830.00;;;;10403090;28;20203;-78
2021/09/27 08:02:29;;;;;;;5.65;4.97;;;;;20.00;100832.00;;;;10437416;28;20187;-78
2021/09/27 08:07:31;;;;;;;5.75;4.60;;;;;20.30;100820.00;;;;10438792;28;20190;-78
2021/09/27 08:12:37;;;;;;;5.20;4.68;;;;;20.50;100831.00;;;;10439281;28;20568;-79
2021/09/27 08:17:41;;;;;;;7.22;4.43;;;;;21.00;100818.00;;;;10431755;28;20201;-78
2021/09/27 08:22:45;;;;;;;5.07;3.90;;;;;21.50;100817.00;;;;10428142;28;20285;-78
2021/09/27 08:27:47;;;;;;;4.40;3.75;;;;;21.90;100817.00;;;;10442486;28;20187;-79
2021/09/27 08:32:48;;;;;;;6.15;4.00;;;;;21.60;100812.00;;;;10422751;28;20673;-78
2021/09/27 08:37:50;;;;;;;4.45;3.90;;;;;21.10;100809.00;;;;10429748;28;20397;-78
2021/09/27 08:42:53;;;;;;;4.85;3.40;;;;;20.60;100803.00;;;;10455050;28;20677;-77
2021/09/27 08:48:19;;;;;;;9.57;3.72;;;;;20.30;100795.00;;;;10436501;28;20206;-78
2021/09/27 08:53:32;;;;;;;4.63;3.70;;;;;20.10;100794.00;;;;10438639;28;20206;-78
2021/09/27 08:58:43;;;;;;;4.45;4.00;;;;;20.10;100796.00;;;;10437793;28;20240;-79
2021/09/27 09:04:11;;;;;;;4.93;3.90;;;;;20.30;100785.00;;;;10453733;28;20518;-78
2021/09/27 09:09:17;;;;;;;4.75;3.95;;;;;20.70;100785.00;;;;10452360;28;20268;-78
2021/09/27 09:15:18;;;;;;;6.45;3.63;;;;;20.90;100781.00;;;;10435667;28;20198;-78
2021/09/27 09:20:31;;;;;;;4.10;3.00;;;;;20.80;100771.00;;;;10208823;29;20317;-78
2021/09/27 09:25:39;;;;;;;4.22;3.00;;;;;20.90;100759.00;;;;10397132;28;20518;-78
2021/09/27 09:31:07;;;;;;;4.80;3.28;;;;;21.10;100754.00;;;;10463452;28;20218;-78
2021/09/27 09:36:20;;;;;;;3.47;3.17;;;;;21.00;100756.00;;;;10419754;28;20201;-78
2021/09/27 09:41:44;;;;;;;5.45;3.60;;;;;20.60;100748.00;;;;10429922;28;20225;-78
2021/09/27 09:47:17;;;;;;;5.60;3.53;;;;;20.20;100748.00;;;;10416433;28;20194;-79
2021/09/27 09:52:34;;;;;;;4.82;3.22;;;;;20.00;100753.00;;;;10408121;28;20222;-79
2021/09/27 09:57:40;;;;;;;6.57;3.90;;;;;20.10;100770.00;;;;10419960;28;20198;-78
2021/09/27 10:02:46;;;;;;;7.22;3.33;;;;;20.10;100758.00;;;;10446698;28;20178;-78
2021/09/27 10:07:55;;;;;;;3.60;3.30;;;;;20.10;100751.00;;;;10411573;28;20201;-77
2021/09/27 10:12:59;;;;;;;4.53;3.05;;;;;20.20;100741.00;;;;10436057;28;20205;-77
2021/09/27 10:18:17;;;;;;;5.38;2.80;;;;;20.60;100717.00;;;;10426446;28;20194;-77
2021/09/27 10:23:30;;;;;;;4.97;3.05;;;;;21.10;100722.00;;;;10430408;28;20201;-78
2021/09/27 10:28:37;;;;;;;8.25;3.20;;;;;21.10;100722.00;;;;10443593;28;20218;-78
2021/09/27 10:34:09;;;;;;;3.00;2.70;;;;;21.10;100714.00;;;;10436050;28;20198;-79
2021/09/27 10:39:16;;;;;;;5.47;2.78;;;;;21.40;100707.00;;;;10414195;28;20217;-78
2021/09/27 10:44:24;;;;;;;7.70;2.80;;;;;22.20;100701.00;;;;10412441;28;20198;-78
2021/09/27 10:49:30;;;;;;;2.88;2.58;;;;;22.50;100698.00;;;;10445040;28;20229;-78
2021/09/27 10:54:35;;;;;;;3.92;2.53;;;;;22.70;100702.00;;;;10418738;28;20224;-78
2021/09/27 10:59:59;;;;;;;5.53;2.55;;;;;23.20;100685.00;;;;10417190;28;20191;-78
2021/09/27 11:05:12;;;;;;;6.38;2.70;;;;;23.60;100694.00;;;;10432246;28;20194;-78
2021/09/27 11:10:47;;;;;;;6.30;2.28;;;;;23.90;100699.00;;;;10416183;28;20259;-78
2021/09/27 11:15:55;;;;;;;3.05;2.17;;;;;23.80;100689.00;;;;10440239;28;20701;-77
2021/09/27 11:21:25;;;;;;;4.13;2.15;;;;;23.60;100704.00;;;;10408567;28;20202;-77
2021/09/27 11:26:36;;;;;;;6.20;2.30;;;;;23.60;100696.00;;;;10412675;28;20374;-78
2021/09/27 11:31:42;;;;;;;7.25;2.30;;;;;24.20;100703.00;;;;10473548;28;20583;-78
2021/09/27 11:36:47;;;;;;;4.60;1.77;;;;;24.00;100707.00;;;;10455776;28;20198;-78
2021/09/27 11:42:07;;;;;;;3.28;2.00;;;;;23.10;100709.00;;;;10431722;28;21174;-78
2021/09/27 11:47:14;;;;;;;2.80;2.00;;;;;22.80;100710.00;;;;10452551;28;20190;-79
2021/09/27 11:52:48;;;;;;;2.78;2.03;;;;;22.50;100712.00;;;;10427970;28;20214;-78
2021/09/27 11:57:58;;;;;;;2.70;2.00;;;;;22.10;100729.00;;;;10389612;28;20191;-79
2021/09/27 12:03:24;;;;;;;2.30;1.92;;;;;22.10;100741.00;;;;10438799;28;20278;-78
2021/09/27 12:08:30;;;;;;;4.47;1.80;;;;;21.50;100749.00;;;;10448424;28;20214;-78
2021/09/27 12:13:40;;;;;;;5.07;2.13;;;;;21.30;100741.00;;;;10407148;28;20195;-78
2021/09/27 12:18:45;;;;;;;3.35;2.22;;;;;20.90;100754.00;;;;10417436;28;20633;-78
2021/09/27 12:23:52;;;;;;;4.20;2.67;;;;;20.50;100754.00;;;;10430735;28;20293;-79
2021/09/27 12:29:09;;;;;;;2.40;2.20;;;;;20.60;100754.00;;;;10479069;28;20649;-78
2021/09/27 12:34:15;;;;;;;2.95;2.20;;;;;20.50;100744.00;;;;10438878;28;20186;-78
2021/09/27 12:39:21;;;;;;;4.90;2.08;;;;;20.30;100737.00;;;;10448180;28;20210;-79
2021/09/27 12:44:28;;;;;;;4.00;2.50;;;;;20.10;100716.00;;;;10447716;28;20217;-79
2021/09/27 12:49:38;;;;;;;5.63;2.30;;;;;19.60;100708.00;;;;10424957;28;20211;-78
2021/09/27 12:54:45;;;;;;;2.60;2.33;;;;;19.30;100695.00;;;;10403842;28;20205;-79
2021/09/27 12:59:47;;;;;;;2.42;2.03;;;;;19.20;100696.00;;;;10435442;28;20507;-79
2021/09/27 13:05:05;;;;;;;1.60;1.50;;;;;18.80;100700.00;;;;10431448;28;20297;-79
2021/09/27 13:10:24;;;;;;;2.50;1.70;;;;;18.50;100714.00;;;;10447152;28;20229;-78
2021/09/27 13:15:42;;;;;;;2.38;1.40;;;;;18.90;100715.00;;;;10420693;28;20228;-78
2021/09/27 13:21:06;;;;;;;1.73;1.55;;;;;18.80;100720.00;;;;10405724;28;20201;-78
2021/09/27 13:26:19;;;;;;;2.92;1.60;;;;;18.60;100734.00;;;;10434590;28;20202;-78
2021/09/27 13:31:29;;;;;;;2.22;1.42;;;;;18.30;100809.00;;;;10449127;28;20214;-79
2021/09/27 13:36:41;;;;;;;3.42;1.40;;;;;17.80;100828.00;;;;10452312;28;20197;-79
2021/09/27 13:42:11;;;;;;;5.35;1.10;;;;;17.40;100830.00;;;;10391806;28;20624;-78
2021/09/27 13:47:16;;;;;;;3.67;1.00;;;;;17.00;100852.00;;;;10427049;28;20242;-79
2021/09/27 13:52:20;;;;;;;5.68;1.40;;;;;16.70;100868.00;;;;10384363;28;20648;-79
2021/09/27 13:57:22;;;;;;;5.70;1.48;;;;;16.90;100891.00;;;;10447717;28;20194;-79
2021/09/27 14:02:24;;;;;;;2.10;1.33;;;;;17.00;100910.00;;;;10434319;28;20665;-79
2021/09/27 14:07:26;;;;;;;4.90;1.50;;;;;17.10;100937.00;;;;10408028;28;20186;-79
2021/09/27 14:12:29;;;;;;;8.13;1.67;;;;;17.00;100939.00;;;;10402961;28;20209;-79
2021/09/27 14:17:31;;;;;;;6.43;1.23;;;;;17.60;100949.00;;;;10429770;28;20198;-79
2021/09/27 14:22:35;;;;;;;4.72;1.45;;;;;17.80;100953.00;;;;10428389;28;20190;-79
2021/09/27 14:27:37;;;;;;;6.97;1.88;;;;;18.00;100964.00;;;;10429595;28;20191;-78
2021/09/27 14:32:39;;;;;;;5.10;1.75;;;;;17.80;100962.00;;;;10409440;28;20217;-79
2021/09/27 14:37:43;;;;;;;9.98;2.13;;;;;17.60;100960.00;;;;10413463;28;20204;-78
2021/09/27 14:42:45;;;;;;;6.90;2.03;;;;;17.70;100960.00;;;;10411391;28;20213;-78
2021/09/27 14:47:47;;;;;;;8.98;2.10;;;;;17.90;100978.00;;;;10435669;28;20308;-79
2021/09/27 14:52:49;;;;;;;5.43;2.25;;;;;18.00;100983.00;;;;10414241;28;20210;-79
2021/09/27 14:57:52;;;;;;;10.32;2.85;;;;;18.10;100985.00;;;;10446048;28;20194;-78
2021/09/27 15:02:54;;;;;;;8.25;1.83;;;;;18.30;100989.00;;;;10433702;28;20202;-78
2021/09/27 15:07:56;;;;;;;13.32;2.50;;;;;18.50;100998.00;;;;10421754;28;20257;-78
2021/09/27 15:12:59;;;;;;;11.80;3.05;;;;;18.30;101010.00;;;;10430813;28;20206;-78
2021/09/27 15:18:02;;;;;;;13.88;2.45;;;;;17.70;101027.00;;;;10473642;28;20194;-78
2021/09/27 15:23:05;;;;;;;9.75;1.85;;;;;17.60;101016.00;;;;10467702;28;20193;-78
2021/09/27 15:28:07;;;;;;;10.98;2.10;;;;;17.30;101011.00;;;;10436814;28;20228;-78
2021/09/27 15:33:09;;;;;;;14.85;2.80;;;;;17.30;101039.00;;;;10449907;28;20205;-77
2021/09/27 15:38:14;;;;;;;8.32;2.13;;;;;17.30;101052.00;;;;10429781;28;20197;-78
2021/09/27 15:43:16;;;;;;;8.77;1.90;;;;;17.50;101062.00;;;;10457478;28;20206;-79
2021/09/27 15:48:19;;;;;;;4.00;1.10;;;;;17.50;101053.00;;;;10385557;28;20213;-79
2021/09/27 15:53:21;;;;;;;6.65;1.30;;;;;17.50;101078.00;;;;10439928;28;20252;-78
2021/09/27 15:58:26;;;;;;;7.35;1.35;;;;;17.40;101080.00;;;;10428966;28;20714;-78
2021/09/27 16:03:28;;;;;;;5.13;0.80;;;;;17.00;101085.00;;;;10465769;28;20268;-78
2021/09/27 16:08:30;;;;;;;5.07;0.95;;;;;16.70;101096.00;;;;10416829;28;20194;-78
2021/09/27 16:13:32;;;;;;;6.03;1.85;;;;;16.50;101101.00;;;;10463347;28;20622;-78
2021/09/27 16:18:34;;;;;;;3.45;1.00;;;;;16.30;101103.00;;;;10435765;28;20213;-78
2021/09/27 16:23:37;;;;;;;5.05;1.05;;;;;16.30;101103.00;;;;10421867;28;20201;-77
2021/09/27 16:28:41;;;;;;;7.15;1.67;;;;;16.30;101123.00;;;;10453627;28;20205;-78
2021/09/27 16:33:42;;;;;;;6.80;1.92;;;;;16.20;101128.00;;;;10397111;28;20218;-78
2021/09/27 16:38:44;;;;;;;5.30;1.05;;;;;16.10;101144.00;;;;10438074;28;20543;-78
2021/09/27 16:43:47;;;;;;;7.35;2.10;;;;;16.00;101153.00;;;;10444044;28;20187;-79
2021/09/27 16:48:51;;;;;;;7.25;1.40;;;;;15.80;101165.00;;;;10393063;28;20207;-78
2021/09/27 16:53:53;;;;;;;3.90;1.50;;;;;15.70;101178.00;;;;10400060;28;20218;-79
2021/09/27 16:58:56;;;;;;;6.03;1.63;;;;;15.50;101188.00;;;;10413190;28;20480;-78
2021/09/27 17:03:58;;;;;;;5.10;1.65;;;;;15.30;101184.00;;;;10402380;28;20240;-77
2021/09/27 17:09:03;;;;;;;4.97;1.17;;;;;15.10;101197.00;;;;10429645;28;20195;-78
2021/09/27 17:19:18;;;;;;;8.83;1.30;;;;;14.90;101217.00;;;;10384448;28;20217;-80
2021/09/27 17:24:20;;;;;;;4.10;1.50;;;;;15.00;101221.00;;;;10432203;28;20199;-78
2021/09/27 17:29:23;;;;;;;8.00;1.70;;;;;15.00;101231.00;;;;10432377;28;20215;-78
2021/09/27 17:34:25;;;;;;;4.40;1.40;;;;;15.00;101237.00;;;;10425650;28;20557;-79
2021/09/27 17:39:27;;;;;;;4.47;1.27;;;;;15.00;101242.00;;;;10425159;28;20594;-78
2021/09/27 17:44:29;;;;;;;2.87;1.13;;;;;14.90;101247.00;;;;10460039;28;20292;-78
2021/09/27 17:49:32;;;;;;;5.83;1.27;;;;;14.70;101259.00;;;;10416022;28;20253;-78
2021/09/27 17:54:34;;;;;;;3.03;1.40;;;;;14.50;101263.00;;;;10423285;28;20202;-77
2021/09/27 17:59:39;;;;;;;5.37;1.40;;;;;14.20;101275.00;;;;10398539;28;20191;-78
2021/09/27 18:04:42;;;;;;;6.97;1.70;;;;;14.00;101284.00;;;;10406277;28;20204;-78
2021/09/27 18:09:44;;;;;;;7.33;1.40;;;;;14.00;101291.00;;;;10423637;28;20206;-76
2021/09/27 18:14:47;;;;;;;5.47;1.43;;;;;14.00;101310.00;;;;10372844;28;20616;-78
2021/09/27 18:19:51;;;;;;;6.37;1.53;;;;;14.00;101317.00;;;;10408575;28;20251;-77
2021/09/27 18:24:53;;;;;;;10.73;2.13;;;;;13.90;101319.00;;;;10396504;28;20236;-78
2021/09/27 18:29:55;;;;;;;6.17;1.60;;;;;13.80;101327.00;;;;10419782;28;20275;-77
2021/09/27 18:34:57;;;;;;;9.17;2.27;;;;;13.70;101337.00;;;;10427156;28;20909;-78
2021/09/27 18:40:01;;;;;;;7.17;1.70;;;;;13.60;101346.00;;;;10409802;28;20221;-77
2021/09/27 18:45:03;;;;;;;4.87;1.87;;;;;13.50;101350.00;;;;10433804;28;20719;-77
2021/09/27 18:50:06;;;;;;;7.40;1.50;;;;;13.60;101369.00;;;;10413103;28;20246;-78
2021/09/27 18:55:10;;;;;;;5.17;1.70;;;;;13.50;101368.00;;;;10402815;28;20795;-78
2021/09/27 19:00:14;;;;;;;8.13;2.13;;;;;13.50;101382.00;;;;10413335;28;20205;-77
2021/09/27 19:05:16;;;;;;;13.20;2.10;;;;;13.60;101391.00;;;;10384365;28;20194;-78
2021/09/27 19:10:18;;;;;;;4.43;1.63;;;;;13.70;101399.00;;;;10424558;28;20210;-78
2021/09/27 19:15:21;;;;;;;10.93;1.93;;;;;13.80;101399.00;;;;10427796;28;20199;-78
2021/09/27 19:20:23;;;;;;;5.80;1.60;;;;;13.70;101414.00;;;;10427780;28;20794;-78
2021/09/27 19:25:25;;;;;;;8.07;2.00;;;;;13.60;101427.00;;;;10431719;28;20198;-77
2021/09/27 19:30:27;;;;;;;8.20;1.90;;;;;13.40;101429.00;;;;10471465;28;20895;-77
2021/09/27 19:35:30;;;;;;;8.13;1.87;;;;;13.50;101441.00;;;;10479709;28;20201;-78
2021/09/27 19:40:32;;;;;;;7.53;1.70;;;;;13.50;101449.00;;;;10427836;28;20223;-77
2021/09/27 19:45:34;;;;;;;8.93;1.77;;;;;13.60;101458.00;;;;10419619;28;20191;-77
2021/09/27 19:50:37;;;;;;;11.60;1.90;;;;;13.70;101461.00;;;;10445716;28;20275;-78
2021/09/27 19:55:41;;;;;;;9.63;1.87;;;;;13.60;101477.00;;;;10416443;28;20194;-78
2021/09/27 20:00:47;;;;;;;5.17;1.30;;;;;13.50;101488.00;;;;10438729;28;20186;-78
2021/09/27 20:05:53;;;;;;;8.10;1.50;;;;;13.30;101494.00;;;;10384895;28;20214;-78
2021/09/27 20:10:56;;;;;;;10.60;1.77;;;;;13.20;101499.00;;;;10415942;28;20210;-77
2021/09/27 20:15:58;;;;;;;4.43;1.60;;;;;13.20;101507.00;;;;10426577;28;20764;-78
2021/09/27 20:21:05;;;;;;;6.23;1.60;;;;;13.20;101500.00;;;;10432340;28;20696;-78
2021/09/27 20:26:08;;;;;;;5.67;1.60;;;;;13.10;101511.00;;;;10434217;28;20194;-78
2021/09/27 20:31:11;;;;;;;7.53;1.73;;;;;13.00;101505.00;;;;10428650;28;20207;-77
2021/09/27 20:36:14;;;;;;;8.63;1.87;;;;;12.90;101513.00;;;;10446339;28;20261;-77
2021/09/27 20:41:17;;;;;;;8.20;2.63;;;;;12.80;101521.00;;;;10417322;28;20210;-78
2021/09/27 20:46:19;;;;;;;8.43;1.90;;;;;12.80;101519.00;;;;10418689;28;20214;-78
2021/09/27 20:51:21;;;;;;;12.77;1.70;;;;;12.80;101522.00;;;;10401980;28;20221;-78
2021/09/27 20:56:23;;;;;;;9.57;2.50;;;;;12.70;101525.00;;;;10462787;28;20207;-77
2021/09/27 21:01:26;;;;;;;6.33;1.93;;;;;12.60;101527.00;;;;10450462;28;20198;-77
2021/09/27 21:06:28;;;;;;;7.20;2.03;;;;;12.60;101536.00;;;;10440611;28;20214;-78
2021/09/27 21:11:29;;;;;;;13.83;1.93;;;;;12.50;101540.00;;;;10393452;28;20237;-78
2021/09/27 21:16:32;;;;;;;10.83;1.70;;;;;12.50;101554.00;;;;10415694;28;20217;-78
2021/09/27 21:21:34;;;;;;;13.97;2.03;;;;;12.50;101546.00;;;;10410651;28;20194;-78
2021/09/27 21:26:36;;;;;;;7.20;1.80;;;;;12.50;101554.00;;;;10398603;28;20218;-78
2021/09/27 21:31:38;;;;;;;7.80;1.93;;;;;12.40;101558.00;;;;10401108;28;20234;-78
2021/09/27 21:36:40;;;;;;;8.90;1.93;;;;;12.40;101565.00;;;;10425599;28;20252;-78
2021/09/27 21:41:43;;;;;;;5.63;1.60;;;;;12.40;101574.00;;;;10404353;28;20586;-77
2021/09/27 21:46:45;;;;;;;13.63;2.13;;;;;12.40;101573.00;;;;10437194;28;20197;-78
2021/09/27 21:51:47;;;;;;;7.00;1.67;;;;;12.40;101569.00;;;;10415877;28;20242;-78
2021/09/27 21:56:51;;;;;;;9.60;1.83;;;;;12.50;101577.00;;;;10447220;28;20260;-78
2021/09/27 22:01:56;;;;;;;13.03;2.13;;;;;12.50;101571.00;;;;10409615;28;20252;-78
2021/09/27 22:07:00;;;;;;;5.53;1.73;;;;;12.50;101586.00;;;;10462828;28;20267;-78
2021/09/27 22:12:03;;;;;;;7.80;1.93;;;;;12.40;101586.00;;;;10382765;28;20229;-79
2021/09/27 22:17:05;;;;;;;9.50;1.70;;;;;12.40;101598.00;;;;10404757;28;20222;-78
2021/09/27 22:22:07;;;;;;;7.37;1.77;;;;;12.40;101599.00;;;;10404841;28;20568;-78
2021/09/27 22:27:09;;;;;;;7.03;2.00;;;;;12.20;101597.00;;;;10421748;28;20603;-78
2021/09/27 22:32:11;;;;;;;5.73;1.70;;;;;12.10;101606.00;;;;10434173;28;20226;-77
2021/09/27 22:37:13;;;;;;;16.30;2.40;;;;;12.10;101599.00;;;;10401490;28;20226;-78
2021/09/27 22:42:15;;;;;;;8.37;1.77;;;;;12.00;101613.00;;;;10413510;28;20218;-78
2021/09/27 22:47:17;;;;;;;11.30;1.83;;;;;12.00;101606.00;;;;10431059;28;20187;-78
2021/09/27 22:52:20;;;;;;;9.60;1.93;;;;;11.90;101613.00;;;;10399712;28;20230;-77
2021/09/27 22:57:22;;;;;;;9.53;2.00;;;;;11.90;101620.00;;;;10396061;28;20224;-78
2021/09/27 23:02:24;;;;;;;11.40;2.30;;;;;11.80;101635.00;;;;10454497;28;20205;-78
2021/09/27 23:07:27;;;;;;;9.10;1.80;;;;;11.70;101617.00;;;;10404902;28;20201;-78
2021/09/27 23:12:30;;;;;;;9.03;2.20;;;;;11.70;101615.00;;;;10434879;28;20660;-77
2021/09/27 23:17:32;;;;;;;11.33;2.47;;;;;11.60;101623.00;;;;10423368;28;20328;-78
2021/09/27 23:22:35;;;;;;;9.77;1.80;;;;;11.60;101626.00;;;;10412729;28;20191;-78
2021/09/27 23:27:38;;;;;;;8.77;1.93;;;;;11.50;101631.00;;;;10448964;28;20201;-77
2021/09/27 23:32:40;;;;;;;8.57;1.80;;;;;11.50;101640.00;;;;10424316;28;20194;-77
2021/09/27 23:37:42;;;;;;;10.40;2.13;;;;;11.50;101641.00;;;;10445097;28;20198;-78
2021/09/27 23:42:44;;;;;;;10.10;2.13;;;;;11.50;101647.00;;;;10473702;28;20259;-78
2021/09/27 23:47:47;;;;;;;9.20;1.67;;;;;11.50;101640.00;;;;10455635;28;20300;-78
2021/09/27 23:52:49;;;;;;;10.43;2.13;;;;;11.50;101651.00;;;;10447125;28;20240;-78
2021/09/27 23:57:51;;;;;;;11.37;3.37;;;;;11.40;101656.00;;;;10427411;28;20194;-78
